Time;durP1;ratioP1;P1;durP2;ratioP2;P2;SDS_P1;SDS_P2;PMS_P1;PMS_P2;Temp;Humidity;BMP_temperature;BMP_pressure;BME280_temperature;BME280_humidity;BME280_pressure;Samples;Min_cycle;Max_cycle;Signal;HPM_P1;HPM_P2
2021/04/14 00:00:07;;;;;;;14.63;9.05;;;5.90;59.10;;;;;;5064149;28;20082;-72
2021/04/14 00:02:33;;;;;;;12.43;8.57;;;5.80;59.20;;;;;;5060371;28;20050;-72
2021/04/14 00:04:59;;;;;;;13.20;8.38;;;5.80;59.40;;;;;;5067272;28;20384;-72
2021/04/14 00:07:25;;;;;;;13.15;8.45;;;5.80;59.60;;;;;;5064493;28;20491;-73
2021/04/14 00:09:51;;;;;;;14.50;9.43;;;5.80;59.90;;;;;;5063166;28;20041;-76
2021/04/14 00:12:16;;;;;;;14.02;8.90;;;5.70;59.90;;;;;;5062546;28;20033;-72
2021/04/14 00:14:42;;;;;;;13.43;8.60;;;5.70;59.90;;;;;;5065750;28;20063;-72
2021/04/14 00:17:08;;;;;;;13.88;9.13;;;5.70;60.20;;;;;;5060367;28;20496;-73
2021/04/14 00:19:34;;;;;;;15.15;9.15;;;5.70;60.20;;;;;;5063775;28;20047;-73
2021/04/14 00:22:01;;;;;;;11.98;8.27;;;5.70;60.50;;;;;;5065087;28;20044;-75
2021/04/14 00:24:26;;;;;;;13.25;8.32;;;5.60;60.50;;;;;;5061621;28;20480;-73
2021/04/14 00:26:53;;;;;;;14.27;8.55;;;5.60;60.90;;;;;;5058583;28;20063;-73
2021/04/14 00:29:18;;;;;;;13.57;8.45;;;5.60;61.40;;;;;;5059073;28;20063;-71
2021/04/14 00:31:44;;;;;;;13.85;8.45;;;5.50;62.00;;;;;;5055030;28;20029;-72
2021/04/14 00:34:16;;;;;;;13.98;8.60;;;5.50;62.60;;;;;;5060263;28;20083;-73
2021/04/14 00:36:43;;;;;;;12.32;8.63;;;5.40;62.90;;;;;;5060893;28;20112;-72
2021/04/14 00:39:14;;;;;;;14.00;8.75;;;5.40;63.10;;;;;;5063284;28;20043;-75
2021/04/14 00:41:40;;;;;;;12.43;8.50;;;5.30;63.40;;;;;;5080151;28;20460;-73
2021/04/14 00:44:05;;;;;;;13.48;8.70;;;5.30;63.50;;;;;;5063371;28;20543;-73
2021/04/14 00:46:31;;;;;;;12.82;8.50;;;5.20;63.90;;;;;;5060530;28;20155;-72
2021/04/14 00:48:57;;;;;;;13.50;9.20;;;5.10;64.20;;;;;;5062949;28;20036;-74
2021/04/14 00:51:23;;;;;;;15.15;10.15;;;5.10;64.20;;;;;;5063754;28;20392;-73
2021/04/14 00:53:49;;;;;;;13.77;9.75;;;5.00;65.00;;;;;;5065795;28;21454;-72
2021/04/14 00:56:15;;;;;;;12.68;9.23;;;5.00;65.50;;;;;;5065157;28;20407;-74
2021/04/14 00:58:41;;;;;;;12.55;8.43;;;4.90;65.80;;;;;;5060316;28;20112;-73
2021/04/14 01:01:07;;;;;;;12.77;8.77;;;4.90;65.90;;;;;;5042513;28;20159;-72
2021/04/14 01:03:35;;;;;;;13.43;8.82;;;4.90;65.90;;;;;;5058682;28;20036;-72
2021/04/14 01:06:13;;;;;;;13.95;8.48;;;4.90;66.00;;;;;;5065365;28;20037;-74
2021/04/14 01:08:39;;;;;;;11.73;8.82;;;4.90;65.80;;;;;;5064334;28;20047;-72
2021/04/14 01:11:06;;;;;;;12.85;8.35;;;4.80;65.80;;;;;;5055202;28;20392;-72
2021/04/14 01:13:32;;;;;;;13.73;9.95;;;4.90;65.80;;;;;;5061920;28;20045;-72
2021/04/14 01:15:58;;;;;;;13.80;9.05;;;4.80;65.80;;;;;;5054604;28;20065;-72
2021/04/14 01:18:28;;;;;;;13.70;9.38;;;4.80;65.80;;;;;;5063630;28;20037;-71
2021/04/14 01:20:54;;;;;;;13.38;9.30;;;4.80;66.00;;;;;;5066349;28;20067;-72
2021/04/14 01:23:22;;;;;;;12.02;9.30;;;4.70;66.10;;;;;;5061490;28;20522;-72
2021/04/14 01:25:48;;;;;;;15.23;9.95;;;4.70;66.40;;;;;;5065690;28;20032;-72
2021/04/14 01:28:23;;;;;;;12.82;8.88;;;4.70;66.70;;;;;;5059788;28;20497;-73
2021/04/14 01:30:51;;;;;;;14.32;9.38;;;4.60;66.90;;;;;;5075316;28;20033;-73
2021/04/14 01:33:18;;;;;;;12.38;9.15;;;4.50;67.10;;;;;;5063541;28;20044;-73
2021/04/14 01:35:44;;;;;;;13.90;8.82;;;4.40;67.40;;;;;;5056133;28;20120;-73
2021/04/14 01:38:10;;;;;;;11.98;8.70;;;4.40;67.80;;;;;;5044727;28;20053;-74
2021/04/14 01:40:36;;;;;;;13.98;9.07;;;4.40;67.90;;;;;;5064331;28;20041;-74
2021/04/14 01:43:03;;;;;;;12.85;8.50;;;4.40;68.00;;;;;;5060415;28;20084;-76
2021/04/14 01:45:34;;;;;;;14.30;9.60;;;4.20;68.40;;;;;;5039238;28;20473;-73
2021/04/14 01:48:00;;;;;;;12.30;9.00;;;4.20;68.90;;;;;;5060356;28;20057;-73
2021/04/14 01:50:26;;;;;;;12.43;8.95;;;4.10;69.30;;;;;;5047801;28;20033;-73
2021/04/14 01:52:52;;;;;;;13.23;9.45;;;4.10;69.50;;;;;;5057660;28;20396;-72
2021/04/14 01:55:18;;;;;;;11.98;8.98;;;4.10;69.80;;;;;;5062792;28;20033;-73
2021/04/14 01:57:46;;;;;;;12.93;9.25;;;4.10;69.90;;;;;;5061732;28;20047;-73
2021/04/14 02:00:28;;;;;;;14.55;9.35;;;4.00;69.60;;;;;;5063385;28;20074;-72
2021/04/14 02:02:54;;;;;;;12.65;8.60;;;4.00;69.60;;;;;;5063127;28;20048;-73
2021/04/14 02:05:27;;;;;;;13.45;9.25;;;4.00;69.70;;;;;;5060192;28;20041;-73
2021/04/14 02:07:53;;;;;;;15.38;9.70;;;3.90;69.80;;;;;;5059967;28;20059;-73
2021/04/14 02:10:20;;;;;;;12.48;9.32;;;3.90;70.00;;;;;;5040952;28;20056;-73
2021/04/14 02:12:46;;;;;;;12.70;8.57;;;3.90;70.10;;;;;;5062451;28;20040;-75
2021/04/14 02:15:19;;;;;;;12.77;8.75;;;3.80;70.50;;;;;;5071686;28;20464;-73
2021/04/14 02:17:45;;;;;;;12.80;8.88;;;3.80;70.50;;;;;;5056236;28;20062;-72
2021/04/14 02:20:11;;;;;;;14.25;8.68;;;3.80;70.60;;;;;;5037711;28;20033;-71
2021/04/14 02:22:37;;;;;;;14.48;9.48;;;3.80;70.60;;;;;;5042408;28;20033;-71
2021/04/14 02:25:06;;;;;;;14.57;9.20;;;3.80;71.00;;;;;;5042102;28;20083;-73
2021/04/14 02:27:31;;;;;;;13.30;9.60;;;3.70;71.20;;;;;;5032124;28;20057;-72
2021/04/14 02:29:57;;;;;;;13.43;9.20;;;3.60;71.80;;;;;;5037558;28;20454;-73
2021/04/14 02:32:23;;;;;;;12.68;9.18;;;3.60;72.00;;;;;;5049122;28;20468;-73
2021/04/14 02:34:48;;;;;;;14.93;10.23;;;3.60;72.30;;;;;;5062146;28;20041;-73
2021/04/14 02:37:14;;;;;;;13.70;9.15;;;3.60;72.70;;;;;;5060861;28;20064;-74
2021/04/14 02:39:39;;;;;;;14.02;9.48;;;3.50;73.10;;;;;;5062397;28;20040;-73
2021/04/14 02:42:06;;;;;;;13.30;9.10;;;3.40;73.20;;;;;;5064529;28;20039;-73
2021/04/14 02:44:31;;;;;;;14.10;9.75;;;3.40;73.40;;;;;;5062998;28;20047;-73
2021/04/14 02:46:57;;;;;;;13.80;10.00;;;3.40;73.80;;;;;;5069520;28;20045;-73
2021/04/14 02:49:24;;;;;;;14.88;9.70;;;3.40;74.20;;;;;;5063675;28;20422;-76
2021/04/14 02:51:50;;;;;;;16.70;9.85;;;3.30;74.50;;;;;;5063109;28;20082;-72
2021/04/14 02:54:17;;;;;;;16.83;9.70;;;3.40;74.40;;;;;;5046312;28;20474;-72
2021/04/14 02:56:42;;;;;;;13.30;9.30;;;3.40;74.10;;;;;;5048377;28;20048;-72
2021/04/14 02:59:08;;;;;;;14.75;9.77;;;3.30;74.00;;;;;;5043605;28;20477;-73
2021/04/14 03:01:34;;;;;;;13.02;9.50;;;3.20;74.10;;;;;;5060455;28;20029;-74
2021/04/14 03:03:59;;;;;;;12.50;9.50;;;3.20;74.10;;;;;;5063812;28;21977;-73
2021/04/14 03:06:25;;;;;;;13.98;9.88;;;3.20;74.00;;;;;;5066183;28;20039;-73
2021/04/14 03:08:51;;;;;;;14.00;10.02;;;3.10;74.00;;;;;;5045598;28;20040;-72
2021/04/14 03:11:17;;;;;;;14.60;9.73;;;3.00;74.30;;;;;;5061631;28;20025;-73
2021/04/14 03:13:43;;;;;;;14.23;9.15;;;2.90;74.50;;;;;;5064954;28;20056;-73
2021/04/14 03:16:08;;;;;;;12.98;9.50;;;2.90;74.70;;;;;;5065013;28;20618;-73
2021/04/14 03:18:34;;;;;;;17.75;10.82;;;2.90;74.60;;;;;;5067498;28;20045;-74
2021/04/14 03:21:00;;;;;;;15.90;11.20;;;2.90;74.60;;;;;;5065085;28;20119;-72
2021/04/14 03:23:26;;;;;;;16.20;12.77;;;2.80;74.70;;;;;;5044032;28;20061;-73
2021/04/14 03:25:52;;;;;;;19.17;11.32;;;2.90;74.80;;;;;;5051470;28;20505;-73
2021/04/14 03:28:17;;;;;;;15.15;11.20;;;2.80;74.80;;;;;;5033703;28;20037;-73
2021/04/14 03:30:43;;;;;;;18.10;12.70;;;2.80;74.80;;;;;;5056589;28;20025;-75
2021/04/14 03:33:11;;;;;;;17.90;12.38;;;2.70;74.90;;;;;;5063297;28;20040;-73
2021/04/14 03:35:37;;;;;;;17.70;12.45;;;2.70;74.60;;;;;;5065600;28;20109;-73
2021/04/14 03:38:03;;;;;;;17.67;13.13;;;2.70;74.30;;;;;;5065650;28;20667;-73
2021/04/14 03:40:29;;;;;;;19.52;13.73;;;2.70;74.20;;;;;;5060587;28;20119;-72
2021/04/14 03:42:56;;;;;;;21.73;13.73;;;2.70;74.10;;;;;;5065749;28;20127;-72
2021/04/14 03:45:29;;;;;;;19.23;13.20;;;2.70;74.00;;;;;;5058200;28;20035;-75
2021/04/14 03:47:55;;;;;;;19.77;13.57;;;2.70;73.70;;;;;;5060461;28;20396;-72
2021/04/14 03:50:22;;;;;;;20.23;13.93;;;2.60;73.40;;;;;;5062260;28;20496;-72
2021/04/14 03:52:49;;;;;;;20.77;13.35;;;2.60;73.60;;;;;;5046550;28;20057;-73
2021/04/14 03:55:16;;;;;;;18.10;12.48;;;2.50;73.80;;;;;;5043184;28;20029;-72
2021/04/14 03:57:42;;;;;;;19.05;12.77;;;2.40;74.40;;;;;;5039652;28;20553;-73
2021/04/14 04:00:11;;;;;;;15.60;12.20;;;2.30;74.60;;;;;;5038387;28;20064;-73
2021/04/14 04:02:36;;;;;;;22.83;13.30;;;2.30;74.70;;;;;;5039864;28;20733;-74
2021/04/14 04:05:03;;;;;;;20.15;13.85;;;2.30;74.90;;;;;;5040107;28;20083;-73
2021/04/14 04:07:29;;;;;;;21.92;13.50;;;2.30;74.80;;;;;;5055031;28;20045;-76
2021/04/14 04:09:55;;;;;;;22.42;12.77;;;2.30;74.60;;;;;;5065666;28;20036;-76
2021/04/14 04:12:20;;;;;;;19.90;13.45;;;2.30;74.80;;;;;;5063060;28;20045;-73
2021/04/14 04:14:50;;;;;;;17.48;12.48;;;2.30;74.70;;;;;;5056112;28;20499;-72
2021/04/14 04:17:19;;;;;;;18.60;12.75;;;2.30;74.60;;;;;;5040176;28;20028;-75
2021/04/14 04:19:44;;;;;;;17.45;12.45;;;2.30;74.60;;;;;;5059232;28;20115;-73
2021/04/14 04:22:12;;;;;;;16.33;11.75;;;2.30;74.50;;;;;;5062751;28;20127;-76
2021/04/14 04:24:38;;;;;;;17.40;12.40;;;2.20;74.70;;;;;;5064602;28;20044;-73
2021/04/14 04:27:05;;;;;;;17.10;13.07;;;2.20;74.90;;;;;;5064857;28;20109;-76
2021/04/14 04:29:30;;;;;;;18.55;12.57;;;2.20;74.90;;;;;;5048600;28;20480;-73
2021/04/14 04:31:56;;;;;;;20.55;12.73;;;2.20;75.00;;;;;;5038229;28;20032;-73
2021/04/14 04:34:22;;;;;;;20.38;12.88;;;2.30;74.90;;;;;;5040604;28;20045;-73
2021/04/14 04:36:51;;;;;;;17.20;12.48;;;2.30;74.70;;;;;;5040517;28;20041;-73
2021/04/14 04:39:19;;;;;;;18.23;12.20;;;2.30;74.40;;;;;;5035658;28;20075;-73
2021/04/14 04:41:44;;;;;;;21.23;13.45;;;2.30;74.50;;;;;;5043022;28;20069;-73
2021/04/14 04:44:10;;;;;;;21.23;13.43;;;2.20;74.90;;;;;;5031461;28;20076;-73
2021/04/14 04:46:36;;;;;;;19.42;13.88;;;2.20;74.90;;;;;;5043613;28;21583;-73
2021/04/14 04:49:02;;;;;;;21.90;15.75;;;2.20;75.00;;;;;;5044241;28;20384;-74
2021/04/14 04:51:28;;;;;;;20.88;14.90;;;2.20;75.10;;;;;;5042838;28;20033;-75
2021/04/14 04:53:55;;;;;;;24.05;16.88;;;2.20;75.30;;;;;;5045453;28;20131;-74
2021/04/14 04:56:21;;;;;;;35.53;21.70;;;2.20;75.20;;;;;;5040350;28;20092;-73
2021/04/14 04:58:46;;;;;;;27.30;20.27;;;2.20;74.90;;;;;;5059334;28;20388;-72
2021/04/14 05:01:12;;;;;;;27.45;18.67;;;2.20;75.00;;;;;;5043339;28;20107;-73
2021/04/14 05:03:38;;;;;;;35.53;24.35;;;2.20;75.10;;;;;;5043655;28;20044;-74
2021/04/14 05:06:04;;;;;;;32.67;22.00;;;2.20;74.70;;;;;;5041524;28;20079;-74
2021/04/14 05:08:29;;;;;;;34.88;23.40;;;2.20;74.70;;;;;;5044551;28;20041;-74
2021/04/14 05:10:56;;;;;;;32.13;22.58;;;2.20;74.50;;;;;;5042272;28;20442;-73
2021/04/14 05:13:22;;;;;;;36.10;23.95;;;2.20;74.60;;;;;;5041306;28;20056;-72
2021/04/14 05:15:48;;;;;;;28.08;20.65;;;2.20;74.80;;;;;;5041829;28;20124;-74
2021/04/14 05:18:14;;;;;;;29.95;19.02;;;2.20;74.90;;;;;;5043304;28;20159;-73
2021/04/14 05:20:40;;;;;;;26.75;19.10;;;2.20;74.90;;;;;;5043378;28;20461;-73
2021/04/14 05:23:08;;;;;;;29.73;20.65;;;2.40;74.90;;;;;;5043054;28;20036;-73
2021/04/14 05:25:37;;;;;;;28.30;20.08;;;2.40;74.80;;;;;;5037345;28;20059;-73
2021/04/14 05:28:09;;;;;;;26.63;19.38;;;2.60;74.70;;;;;;5045174;28;20032;-73
2021/04/14 05:30:35;;;;;;;33.58;20.45;;;2.70;74.40;;;;;;5043077;28;20392;-73
2021/04/14 05:33:02;;;;;;;36.00;22.52;;;2.70;74.20;;;;;;5041361;28;20045;-74
2021/04/14 05:35:28;;;;;;;34.75;25.00;;;2.80;74.10;;;;;;5041049;28;20040;-73
2021/04/14 05:37:54;;;;;;;30.75;20.67;;;2.90;74.10;;;;;;5046167;28;20045;-73
2021/04/14 05:40:22;;;;;;;25.38;18.88;;;3.00;73.80;;;;;;5039665;28;20037;-72
2021/04/14 05:42:49;;;;;;;23.98;18.33;;;3.10;73.50;;;;;;5038180;28;20053;-74
2021/04/14 05:45:26;;;;;;;29.65;18.60;;;3.20;73.10;;;;;;5045017;28;20045;-72
2021/04/14 05:47:52;;;;;;;26.35;17.63;;;3.30;72.90;;;;;;5041025;28;20040;-73
2021/04/14 05:50:21;;;;;;;21.65;15.98;;;3.30;72.50;;;;;;5042029;28;20045;-75
2021/04/14 05:52:46;;;;;;;26.35;17.30;;;3.40;72.40;;;;;;5043075;28;20045;-73
2021/04/14 05:55:12;;;;;;;26.35;16.20;;;3.40;72.20;;;;;;5041849;28;20055;-73
2021/04/14 05:57:38;;;;;;;22.63;15.90;;;3.50;71.90;;;;;;5043649;28;20052;-72
2021/04/14 06:00:11;;;;;;;28.60;16.65;;;3.50;71.50;;;;;;5044083;28;20111;-75
2021/04/14 06:02:37;;;;;;;30.35;18.52;;;3.60;71.40;;;;;;5042228;28;20091;-73
2021/04/14 06:05:04;;;;;;;26.40;17.20;;;3.60;70.70;;;;;;5040693;28;20497;-73
2021/04/14 06:07:29;;;;;;;27.67;19.10;;;3.60;70.60;;;;;;5043263;28;20036;-74
2021/04/14 06:09:55;;;;;;;27.23;19.10;;;3.60;70.10;;;;;;5043590;28;20428;-72
2021/04/14 06:12:20;;;;;;;36.05;20.55;;;3.50;70.60;;;;;;5040967;28;23374;-75
2021/04/14 06:14:46;;;;;;;29.33;20.00;;;3.50;70.80;;;;;;5042422;28;20048;-72
2021/04/14 06:17:12;;;;;;;53.53;31.42;;;3.50;70.20;;;;;;5040349;28;20029;-71
2021/04/14 06:19:38;;;;;;;38.05;22.90;;;3.60;70.50;;;;;;5051538;28;20399;-71
2021/04/14 06:22:06;;;;;;;26.77;18.05;;;3.60;70.80;;;;;;5040532;28;20033;-74
2021/04/14 06:24:32;;;;;;;26.98;16.35;;;3.60;72.60;;;;;;5046122;28;20045;-71
2021/04/14 06:27:01;;;;;;;23.63;16.20;;;3.50;73.40;;;;;;5038334;28;20396;-70
2021/04/14 06:29:27;;;;;;;20.52;14.98;;;3.40;74.20;;;;;;5043603;28;20034;-71
2021/04/14 06:31:55;;;;;;;22.27;15.55;;;3.40;75.10;;;;;;5043507;28;20552;-71
2021/04/14 06:34:23;;;;;;;26.00;15.75;;;3.50;75.50;;;;;;5035490;28;20056;-72
2021/04/14 06:36:53;;;;;;;22.17;15.32;;;3.60;75.50;;;;;;5040789;28;20041;-74
2021/04/14 06:39:19;;;;;;;20.48;15.45;;;3.60;74.90;;;;;;5043060;28;20435;-72
2021/04/14 06:42:05;;;;;;;35.67;19.50;;;3.60;74.50;;;;;;5038841;28;20037;-75
2021/04/14 06:44:40;;;;;;;33.65;21.00;;;3.50;74.90;;;;;;5043720;28;20040;-76
2021/04/14 06:47:37;;;;;;;33.83;22.00;;;3.50;74.80;;;;;;5046870;28;20029;-77
2021/04/14 06:50:17;;;;;;;52.97;27.70;;;3.50;74.90;;;;;;5038181;28;20983;-70
2021/04/14 06:53:01;;;;;;;54.03;27.02;;;3.40;75.20;;;;;;5044351;28;20037;-70
2021/04/14 06:55:32;;;;;;;41.20;23.35;;;3.50;75.00;;;;;;5042908;28;20034;-70
2021/04/14 06:58:03;;;;;;;30.90;19.25;;;3.60;74.80;;;;;;5039639;28;20539;-71
2021/04/14 07:00:35;;;;;;;25.00;17.33;;;3.70;74.60;;;;;;5058930;28;20040;-66
2021/04/14 07:03:12;;;;;;;27.67;18.20;;;3.90;74.00;;;;;;5040919;28;20041;-70
2021/04/14 07:05:47;;;;;;;23.65;17.42;;;4.20;72.70;;;;;;5060784;28;20059;-69
2021/04/14 07:08:20;;;;;;;28.60;16.77;;;4.40;70.90;;;;;;5063361;28;20060;-67
2021/04/14 07:10:50;;;;;;;24.58;16.33;;;4.60;70.10;;;;;;5059082;28;20060;-66
2021/04/14 07:13:15;;;;;;;27.27;17.17;;;4.90;70.20;;;;;;5061252;28;20033;-67
2021/04/14 07:15:41;;;;;;;25.38;16.92;;;5.20;68.80;;;;;;5053422;28;20593;-66
2021/04/14 07:18:29;;;;;;;24.65;16.52;;;5.50;66.90;;;;;;5046571;28;20095;-67
2021/04/14 07:21:17;;;;;;;28.52;17.35;;;5.80;65.30;;;;;;5050231;28;20534;-67
2021/04/14 07:24:02;;;;;;;29.30;17.17;;;6.10;63.90;;;;;;5060692;28;20044;-67
2021/04/14 07:26:40;;;;;;;21.92;16.25;;;6.20;63.60;;;;;;5056008;28;20037;-67
2021/04/14 07:29:26;;;;;;;20.75;16.13;;;6.50;62.30;;;;;;5048754;28;20036;-67
2021/04/14 07:32:12;;;;;;;21.58;15.15;;;6.80;60.70;;;;;;5048725;28;20040;-67
2021/04/14 07:35:09;;;;;;;23.15;15.77;;;7.10;58.40;;;;;;5065843;28;20037;-67
2021/04/14 07:38:06;;;;;;;26.25;16.25;;;7.40;59.00;;;;;;5061995;28;20044;-69
2021/04/14 07:40:46;;;;;;;21.65;14.43;;;7.60;55.90;;;;;;5055523;28;20028;-67
2021/04/14 07:43:43;;;;;;;25.45;14.80;;;7.60;54.70;;;;;;5047023;28;20037;-67
2021/04/14 07:46:16;;;;;;;22.95;15.20;;;7.60;53.90;;;;;;5056057;28;20028;-69
2021/04/14 07:48:44;;;;;;;30.83;18.98;;;7.90;54.40;;;;;;5041663;28;20072;-68
2021/04/14 07:51:17;;;;;;;18.48;13.68;;;7.80;53.40;;;;;;5043261;28;20033;-67
2021/04/14 07:53:54;;;;;;;38.92;21.73;;;8.10;54.00;;;;;;5041846;28;20037;-69
2021/04/14 07:56:21;;;;;;;26.00;16.55;;;8.10;53.30;;;;;;5042296;28;20075;-67
2021/04/14 07:58:53;;;;;;;25.00;16.80;;;8.10;53.90;;;;;;5045611;28;20110;-68
2021/04/14 08:01:21;;;;;;;20.67;13.43;;;8.40;54.20;;;;;;5042355;28;20029;-67
2021/04/14 08:03:48;;;;;;;18.67;12.93;;;8.70;53.00;;;;;;5047000;28;20047;-69
2021/04/14 08:06:28;;;;;;;21.20;14.80;;;8.60;53.80;;;;;;5041631;28;20421;-69
2021/04/14 08:08:55;;;;;;;25.55;13.32;;;8.50;53.80;;;;;;5041288;28;20033;-71
2021/04/14 08:11:32;;;;;;;22.27;14.80;;;8.60;54.20;;;;;;5040954;28;20806;-70
2021/04/14 08:14:13;;;;;;;29.40;20.45;;;8.60;54.00;;;;;;5041074;28;20048;-70
2021/04/14 08:16:47;;;;;;;23.70;14.07;;;8.50;54.40;;;;;;5050597;28;20046;-70
2021/04/14 08:19:19;;;;;;;26.23;16.25;;;8.60;55.40;;;;;;5059734;28;20427;-66
2021/04/14 08:22:07;;;;;;;24.20;16.00;;;8.60;56.40;;;;;;5055575;28;20043;-69
2021/04/14 08:24:35;;;;;;;24.08;16.73;;;8.40;58.70;;;;;;5063159;28;20032;-69
2021/04/14 08:27:33;;;;;;;25.08;17.33;;;8.20;59.40;;;;;;5064517;28;20091;-70
2021/04/14 08:30:02;;;;;;;26.98;17.90;;;8.10;61.10;;;;;;5059318;28;20040;-69
2021/04/14 08:32:35;;;;;;;28.02;19.60;;;8.00;62.20;;;;;;5053409;28;20032;-69
2021/04/14 08:35:05;;;;;;;27.30;19.67;;;7.80;63.30;;;;;;5061056;28;20047;-72
2021/04/14 08:37:32;;;;;;;26.30;19.10;;;7.90;63.70;;;;;;5045156;28;20072;-69
2021/04/14 08:40:02;;;;;;;27.38;20.00;;;8.30;64.50;;;;;;5046317;28;20455;-69
2021/04/14 08:42:35;;;;;;;29.13;21.17;;;8.70;64.10;;;;;;5061718;28;20157;-69
2021/04/14 08:45:03;;;;;;;28.27;21.60;;;8.90;63.80;;;;;;5061494;28;20044;-71
2021/04/14 08:47:30;;;;;;;31.45;22.58;;;9.30;63.20;;;;;;5055231;28;20071;-69
2021/04/14 08:50:16;;;;;;;30.05;21.42;;;9.60;61.90;;;;;;5062288;28;20040;-67
2021/04/14 08:52:45;;;;;;;30.17;22.83;;;9.40;61.20;;;;;;5054554;28;20049;-70
2021/04/14 08:55:12;;;;;;;32.05;24.02;;;9.30;61.90;;;;;;5056171;28;20029;-68
2021/04/14 08:57:39;;;;;;;32.90;25.25;;;8.90;62.70;;;;;;5059235;28;20476;-69
2021/04/14 09:00:08;;;;;;;31.95;23.80;;;8.60;63.60;;;;;;5060598;28;20029;-67
2021/04/14 09:02:34;;;;;;;34.00;24.38;;;8.50;62.80;;;;;;5060260;28;20028;-68
2021/04/14 09:05:03;;;;;;;33.70;25.70;;;8.40;62.70;;;;;;5056556;28;20182;-68
2021/04/14 09:07:34;;;;;;;31.88;24.98;;;8.40;63.10;;;;;;5060765;28;20420;-69
2021/04/14 09:10:05;;;;;;;33.67;25.13;;;8.40;62.20;;;;;;5060880;28;20036;-70
2021/04/14 09:12:46;;;;;;;34.75;25.88;;;8.50;62.90;;;;;;5062683;28;20040;-68
2021/04/14 09:15:15;;;;;;;37.28;26.63;;;8.60;63.20;;;;;;5061864;28;20040;-69
2021/04/14 09:17:42;;;;;;;36.03;25.70;;;8.80;62.20;;;;;;5059499;28;20090;-67
2021/04/14 09:20:24;;;;;;;33.10;24.50;;;8.80;60.40;;;;;;5059047;28;20052;-71
2021/04/14 09:23:00;;;;;;;36.13;25.77;;;9.10;60.70;;;;;;5059114;28;20425;-68
2021/04/14 09:25:45;;;;;;;36.33;25.45;;;9.20;61.50;;;;;;5058044;28;20116;-70
2021/04/14 09:28:30;;;;;;;34.97;26.05;;;9.50;61.60;;;;;;5060007;28;20068;-68
2021/04/14 09:30:58;;;;;;;32.60;25.10;;;9.60;61.50;;;;;;5039053;28;20061;-69
2021/04/14 09:33:50;;;;;;;33.45;24.88;;;10.10;59.80;;;;;;5060383;28;20038;-68
2021/04/14 09:36:33;;;;;;;32.20;23.08;;;10.50;58.20;;;;;;5047540;28;20039;-69
2021/04/14 09:39:13;;;;;;;29.55;23.65;;;10.80;57.70;;;;;;5040399;28;20349;-69
2021/04/14 09:41:39;;;;;;;30.42;23.10;;;10.30;55.90;;;;;;5041469;28;20093;-69
2021/04/14 09:44:31;;;;;;;30.83;23.88;;;10.00;56.90;;;;;;5037905;28;20456;-70
2021/04/14 09:47:10;;;;;;;35.72;24.05;;;9.70;57.20;;;;;;5038089;28;20464;-69
2021/04/14 09:49:40;;;;;;;31.90;23.02;;;9.40;56.80;;;;;;5062429;28;20067;-69
2021/04/14 09:52:29;;;;;;;32.10;24.02;;;9.30;57.80;;;;;;5062720;28;20036;-68
2021/04/14 09:55:30;;;;;;;31.65;22.85;;;9.50;58.10;;;;;;5047544;28;20053;-70
2021/04/14 09:57:57;;;;;;;29.13;22.58;;;9.40;58.90;;;;;;5057706;28;20032;-69
2021/04/14 10:00:26;;;;;;;32.45;23.85;;;9.60;58.60;;;;;;5061374;28;20043;-68
2021/04/14 10:02:58;;;;;;;30.23;22.67;;;10.20;58.50;;;;;;5063630;28;20068;-68
2021/04/14 10:05:29;;;;;;;26.05;20.40;;;10.80;55.10;;;;;;5061919;28;20047;-69
2021/04/14 10:07:59;;;;;;;27.70;20.98;;;10.80;52.10;;;;;;5063871;28;20051;-70
2021/04/14 10:10:25;;;;;;;27.13;21.00;;;11.00;52.60;;;;;;5069612;28;20025;-68
2021/04/14 10:12:54;;;;;;;25.98;19.85;;;11.10;53.50;;;;;;5065787;28;20044;-69
2021/04/14 10:15:49;;;;;;;30.48;20.88;;;10.70;53.30;;;;;;5064925;28;20041;-68
2021/04/14 10:18:27;;;;;;;27.13;20.40;;;10.00;54.90;;;;;;5057914;28;20041;-68
2021/04/14 10:20:54;;;;;;;27.48;20.90;;;9.70;55.20;;;;;;5062477;28;20429;-71
2021/04/14 10:23:24;;;;;;;30.58;22.58;;;9.60;56.10;;;;;;5062883;28;20395;-69
2021/04/14 10:26:00;;;;;;;27.70;21.30;;;9.60;56.20;;;;;;5067026;28;20044;-68
2021/04/14 10:28:27;;;;;;;27.88;20.33;;;9.60;55.80;;;;;;5064926;28;20037;-68
2021/04/14 10:31:08;;;;;;;24.27;19.63;;;10.10;54.30;;;;;;5069499;28;20455;-69
2021/04/14 10:33:36;;;;;;;23.45;18.38;;;10.30;52.00;;;;;;5050979;28;20075;-67
2021/04/14 10:36:32;;;;;;;26.92;19.08;;;10.10;52.90;;;;;;5055871;28;20041;-72
2021/04/14 10:39:09;;;;;;;26.17;18.55;;;10.00;52.60;;;;;;5049030;28;20033;-68
2021/04/14 10:41:34;;;;;;;24.15;18.35;;;9.70;51.20;;;;;;5039136;28;20485;-68
2021/04/14 10:44:00;;;;;;;24.67;18.08;;;9.70;50.80;;;;;;5043336;28;20095;-69
2021/04/14 10:46:28;;;;;;;25.30;18.75;;;9.80;50.60;;;;;;5036248;28;20847;-69
2021/04/14 10:49:00;;;;;;;23.42;17.02;;;9.90;50.50;;;;;;5035029;28;20037;-69
2021/04/14 10:51:31;;;;;;;27.17;20.38;;;10.00;51.10;;;;;;5031843;28;20426;-69
2021/04/14 10:54:00;;;;;;;23.75;19.38;;;10.40;52.20;;;;;;5042118;28;20132;-68
2021/04/14 10:56:31;;;;;;;23.15;17.73;;;10.70;50.50;;;;;;5042008;28;20130;-69
2021/04/14 10:59:03;;;;;;;22.17;16.90;;;10.70;48.90;;;;;;5042781;28;20075;-69
2021/04/14 11:01:47;;;;;;;23.88;17.65;;;10.20;50.40;;;;;;5044125;28;20034;-68
2021/04/14 11:04:16;;;;;;;24.60;18.80;;;10.40;50.40;;;;;;5035442;28;20047;-72
2021/04/14 11:06:44;;;;;;;22.85;17.90;;;10.80;50.40;;;;;;5041189;28;20037;-69
2021/04/14 11:09:10;;;;;;;21.67;17.30;;;10.90;49.60;;;;;;5041916;28;20033;-70
2021/04/14 11:11:38;;;;;;;24.58;18.65;;;11.20;49.50;;;;;;5046213;28;20039;-69
2021/04/14 11:14:09;;;;;;;22.77;18.02;;;11.30;48.60;;;;;;5045697;28;20040;-75
2021/04/14 11:16:40;;;;;;;21.60;16.70;;;11.70;49.00;;;;;;5042070;28;20047;-69
2021/04/14 11:19:27;;;;;;;20.33;16.00;;;11.40;46.40;;;;;;5042893;28;20083;-69
2021/04/14 11:22:08;;;;;;;19.77;15.38;;;11.30;47.70;;;;;;5037024;28;20025;-69
2021/04/14 11:24:51;;;;;;;20.40;16.25;;;11.60;46.20;;;;;;5060220;28;20390;-69
2021/04/14 11:27:24;;;;;;;20.38;16.00;;;11.60;45.90;;;;;;5060593;28;20049;-69
2021/04/14 11:29:51;;;;;;;21.38;16.45;;;11.10;46.40;;;;;;5064748;28;20468;-70
2021/04/14 11:32:22;;;;;;;21.42;16.20;;;10.80;47.60;;;;;;5064203;28;20089;-69
2021/04/14 11:35:01;;;;;;;22.38;15.70;;;10.60;47.10;;;;;;5051992;28;20052;-71
2021/04/14 11:37:30;;;;;;;21.95;15.95;;;11.00;48.50;;;;;;5059557;28;20120;-69
2021/04/14 11:40:04;;;;;;;19.77;15.70;;;11.30;46.60;;;;;;5060224;28;21017;-69
2021/04/14 11:42:54;;;;;;;19.45;14.55;;;11.30;46.90;;;;;;5057903;28;20032;-68
2021/04/14 11:45:34;;;;;;;20.95;14.95;;;11.70;46.10;;;;;;5065773;28;20025;-69
2021/04/14 11:48:14;;;;;;;19.02;14.82;;;11.70;45.20;;;;;;5045139;28;20053;-68
2021/04/14 11:50:42;;;;;;;19.58;14.23;;;11.80;44.20;;;;;;5048411;28;20040;-69
2021/04/14 11:53:23;;;;;;;19.08;14.10;;;11.50;44.50;;;;;;5041194;28;20107;-68
2021/04/14 11:55:50;;;;;;;21.25;14.20;;;11.60;44.70;;;;;;5039559;28;20037;-72
2021/04/14 11:58:36;;;;;;;20.08;15.43;;;12.00;45.30;;;;;;5037151;28;20033;-68
2021/04/14 12:01:03;;;;;;;23.73;14.73;;;12.10;43.60;;;;;;5036721;28;20041;-71
2021/04/14 12:03:35;;;;;;;18.83;15.32;;;11.60;43.90;;;;;;5047925;28;20112;-70
2021/04/14 12:06:01;;;;;;;18.92;14.10;;;11.30;45.50;;;;;;5045845;28;20057;-72
2021/04/14 12:08:29;;;;;;;18.00;13.32;;;11.50;45.50;;;;;;5067346;28;20115;-70
2021/04/14 12:10:56;;;;;;;16.55;12.38;;;11.80;47.10;;;;;;5061431;28;20029;-70
2021/04/14 12:13:22;;;;;;;18.85;12.50;;;11.20;46.60;;;;;;5068267;28;20055;-70
2021/04/14 12:15:51;;;;;;;17.90;13.27;;;10.80;47.40;;;;;;5057431;28;20396;-72
2021/04/14 12:18:18;;;;;;;17.73;12.52;;;10.70;48.40;;;;;;5062418;28;20392;-72
2021/04/14 12:20:44;;;;;;;18.10;13.55;;;10.80;48.70;;;;;;5055158;28;20025;-72
2021/04/14 12:23:09;;;;;;;18.20;13.30;;;10.80;49.10;;;;;;5055767;28;20062;-70
2021/04/14 12:25:35;;;;;;;20.40;13.63;;;10.90;47.90;;;;;;5056736;28;20048;-72
2021/04/14 12:28:01;;;;;;;18.08;14.43;;;11.10;46.20;;;;;;5052483;28;20062;-71
2021/04/14 12:30:27;;;;;;;17.52;12.45;;;10.70;46.50;;;;;;5067607;28;20028;-75
2021/04/14 12:32:54;;;;;;;16.55;11.70;;;10.60;47.80;;;;;;5064829;28;20491;-71
2021/04/14 12:35:21;;;;;;;18.65;12.68;;;10.40;48.60;;;;;;5065007;28;20033;-70
2021/04/14 12:37:47;;;;;;;19.10;12.68;;;10.50;47.90;;;;;;5066068;28;20064;-69
2021/04/14 12:40:13;;;;;;;16.05;11.55;;;10.20;49.10;;;;;;5060792;28;20114;-70
2021/04/14 12:42:39;;;;;;;18.80;13.70;;;10.30;49.70;;;;;;5060517;28;20037;-70
2021/04/14 12:45:28;;;;;;;17.75;13.93;;;10.10;49.20;;;;;;5055628;28;20062;-73
2021/04/14 12:47:54;;;;;;;17.40;12.40;;;10.30;49.50;;;;;;5053220;28;20502;-71
2021/04/14 12:50:20;;;;;;;17.50;13.65;;;10.50;48.90;;;;;;5062247;28;20052;-72
2021/04/14 12:52:51;;;;;;;16.17;12.05;;;10.90;49.50;;;;;;5064350;28;20491;-70